createdAt,value
2023-03-17T00:01:54.829Z,59.84
2023-03-17T00:04:26.598Z,59.71
2023-03-17T00:06:54.448Z,60.82
2023-03-17T00:09:22.250Z,60.72
2023-03-17T00:11:49.995Z,60.36
2023-03-17T00:14:16.964Z,60.64
2023-03-17T00:16:51.199Z,60.50
2023-03-17T00:19:24.192Z,60.73
2023-03-17T00:21:50.870Z,60.81
2023-03-17T00:24:17.522Z,61.74
2023-03-17T00:26:44.476Z,61.78
2023-03-17T00:29:11.100Z,62.33
2023-03-17T00:31:39.443Z,60.38
2023-03-17T00:34:06.569Z,60.62
2023-03-17T00:36:34.415Z,60.42
2023-03-17T00:39:03.687Z,60.09
2023-03-17T00:41:30.494Z,59.53
2023-03-17T00:43:57.318Z,59.63
2023-03-17T00:46:36.080Z,59.67
2023-03-17T00:49:20.208Z,59.24
2023-03-17T00:51:47.350Z,59.29
2023-03-17T00:54:16.293Z,58.58
2023-03-17T00:56:44.290Z,58.92
2023-03-17T00:59:20.794Z,58.14
2023-03-17T01:01:48.920Z,58.33
2023-03-17T01:04:15.814Z,57.84
2023-03-17T01:06:43.204Z,58.27
2023-03-17T01:09:14.722Z,58.76
2023-03-17T01:11:42.677Z,58.28
2023-03-17T01:14:10.651Z,58.04
2023-03-17T01:16:37.535Z,58.32
2023-03-17T01:19:04.656Z,58.66
2023-03-17T01:21:31.411Z,57.43
2023-03-17T01:23:58.624Z,57.50
2023-03-17T01:26:26.141Z,58.58
2023-03-17T01:28:52.805Z,58.40
2023-03-17T01:31:20.487Z,57.89
2023-03-17T01:33:47.399Z,57.29
2023-03-17T01:36:14.160Z,57.60
2023-03-17T01:38:40.899Z,57.30
2023-03-17T01:41:07.546Z,57.73
2023-03-17T01:43:34.177Z,58.14
2023-03-17T01:46:13.011Z,57.05
2023-03-17T01:49:24.950Z,57.36
2023-03-17T01:51:57.681Z,57.60
2023-03-17T01:54:55.709Z,58.23
2023-03-17T01:57:56.392Z,57.44
2023-03-17T02:00:26.574Z,58.12
2023-03-17T02:02:57.126Z,57.73
2023-03-17T02:05:29.950Z,58.23
2023-03-17T02:07:56.916Z,58.46
2023-03-17T02:10:29.755Z,58.36
2023-03-17T02:13:01.603Z,58.21
2023-03-17T02:15:46.230Z,58.32
2023-03-17T02:18:13.600Z,58.03
2023-03-17T02:20:40.116Z,58.04
2023-03-17T02:23:08.948Z,57.65
2023-03-17T02:25:36.739Z,57.61
2023-03-17T02:28:15.071Z,57.70
2023-03-17T02:30:43.230Z,57.42
2023-03-17T02:33:11.872Z,58.93
2023-03-17T02:35:40.851Z,57.63
2023-03-17T02:38:08.277Z,57.56
2023-03-17T02:40:34.826Z,57.45
2023-03-17T02:43:02.495Z,57.51
2023-03-17T02:45:29.150Z,58.23
2023-03-17T02:47:57.180Z,57.89
2023-03-17T02:50:27.850Z,57.67
2023-03-17T02:52:54.909Z,57.63
2023-03-17T02:55:21.602Z,57.90
2023-03-17T02:57:48.651Z,57.70
2023-03-17T03:00:15.523Z,58.32
2023-03-17T03:02:42.495Z,57.86
2023-03-17T03:05:10.741Z,58.64
2023-03-17T03:07:37.434Z,57.80
2023-03-17T03:10:05.470Z,58.27
2023-03-17T03:12:33.471Z,58.29
2023-03-17T03:15:00.697Z,58.85
2023-03-17T03:17:27.284Z,58.76
2023-03-17T03:19:53.948Z,58.39
2023-03-17T03:22:20.561Z,58.10
2023-03-17T03:24:47.082Z,57.97
2023-03-17T03:27:13.755Z,58.15
2023-03-17T03:29:41.692Z,58.13
2023-03-17T03:32:09.034Z,59.97
2023-03-17T03:34:35.650Z,59.80
2023-03-17T03:37:02.212Z,60.02
2023-03-17T03:39:28.742Z,60.75
2023-03-17T03:41:58.335Z,62.54
2023-03-17T03:44:25.550Z,59.53
2023-03-17T03:46:52.557Z,58.81
2023-03-17T03:49:19.237Z,59.94
2023-03-17T03:51:46.047Z,59.20
2023-03-17T03:54:12.592Z,59.79
2023-03-17T03:56:39.175Z,59.56
2023-03-17T03:59:06.197Z,59.23
2023-03-17T04:01:32.891Z,58.22
2023-03-17T04:03:59.474Z,58.65
2023-03-17T04:06:26.322Z,58.69
2023-03-17T04:08:53.058Z,59.02
2023-03-17T04:11:19.905Z,58.53
2023-03-17T04:13:46.443Z,60.10
2023-03-17T04:16:13.199Z,60.12
2023-03-17T04:18:39.930Z,61.45
2023-03-17T04:21:08.275Z,62.28
2023-03-17T04:23:34.835Z,62.23
2023-03-17T04:26:01.532Z,62.56
2023-03-17T04:28:28.103Z,62.26
2023-03-17T04:30:54.917Z,61.57
2023-03-17T04:33:21.568Z,61.38
2023-03-17T04:35:48.228Z,59.77
2023-03-17T04:38:14.814Z,60.22
2023-03-17T04:40:41.536Z,59.82
2023-03-17T04:43:09.068Z,59.69
2023-03-17T04:45:37.190Z,59.54
2023-03-17T04:48:04.228Z,60.85
2023-03-17T04:50:33.330Z,60.69
2023-03-17T04:53:00.296Z,63.30
2023-03-17T04:55:27.542Z,65.81
2023-03-17T04:57:54.166Z,63.62
2023-03-17T05:00:21.551Z,64.32
2023-03-17T05:02:48.204Z,61.53
2023-03-17T05:05:14.965Z,61.50
2023-03-17T05:07:42.011Z,60.66
2023-03-17T05:10:09.373Z,60.36
2023-03-17T05:12:36.112Z,60.35
2023-03-17T05:15:02.921Z,59.60
2023-03-17T05:17:29.646Z,59.51
2023-03-17T05:19:56.399Z,60.46
2023-03-17T05:22:23.457Z,60.01
2023-03-17T05:24:50.992Z,60.96
2023-03-17T05:27:17.640Z,60.28
2023-03-17T05:29:44.220Z,60.22
2023-03-17T05:32:10.747Z,59.33
2023-03-17T05:34:37.313Z,60.57
2023-03-17T05:37:03.856Z,59.74
2023-03-17T05:39:30.843Z,60.65
2023-03-17T05:41:57.817Z,62.90
2023-03-17T05:44:24.783Z,65.30
2023-03-17T05:46:51.680Z,66.08
2023-03-17T05:49:19.179Z,64.33
2023-03-17T05:51:46.480Z,63.69
2023-03-17T05:54:13.798Z,61.58
2023-03-17T05:56:40.471Z,63.72
2023-03-17T05:59:07.020Z,64.53
2023-03-17T06:01:33.617Z,65.29
2023-03-17T06:04:01.652Z,65.97
2023-03-17T06:06:28.843Z,66.74
2023-03-17T06:08:55.500Z,65.98
2023-03-17T06:11:22.090Z,68.40
2023-03-17T06:13:48.988Z,66.46
2023-03-17T06:16:16.026Z,67.36
2023-03-17T06:18:43.047Z,66.73
2023-03-17T06:21:10.457Z,67.49
2023-03-17T06:23:37.236Z,69.68
2023-03-17T06:26:04.400Z,68.73
2023-03-17T06:28:31.240Z,66.24
2023-03-17T06:30:58.717Z,66.83
2023-03-17T06:33:26.052Z,67.52
2023-03-17T06:35:52.715Z,66.99
2023-03-17T06:38:20.799Z,64.03
2023-03-17T06:40:47.924Z,64.16
2023-03-17T06:43:14.776Z,62.60
2023-03-17T06:45:41.695Z,64.82
2023-03-17T06:48:08.409Z,63.55
2023-03-17T06:50:35.363Z,61.53
2023-03-17T06:53:01.978Z,60.42
2023-03-17T06:55:29.093Z,61.98
2023-03-17T06:57:56.231Z,61.06
2023-03-17T11:31:54.724Z,42.46
2023-03-17T11:34:36.440Z,40.90
2023-03-17T11:37:44.389Z,41.44
2023-03-17T11:40:19.649Z,40.65
2023-03-17T11:43:33.569Z,41.45
2023-03-17T11:46:13.271Z,41.20
2023-03-17T11:49:00.756Z,39.79
2023-03-17T11:51:56.654Z,42.71
2023-03-17T11:54:42.120Z,40.62
2023-03-17T11:57:27.138Z,41.87
2023-03-17T12:00:03.371Z,39.62
2023-03-17T12:02:47.613Z,40.00
2023-03-17T12:05:24.144Z,39.58
2023-03-17T12:08:07.801Z,40.76
2023-03-17T12:10:41.930Z,39.96
2023-03-17T12:13:15.675Z,40.17
2023-03-17T12:15:52.981Z,40.58
2023-03-17T12:18:26.486Z,39.83
2023-03-17T12:21:24.132Z,39.11
2023-03-17T12:24:02.337Z,39.58
2023-03-17T12:26:35.310Z,39.56
2023-03-17T12:29:24.759Z,39.35
2023-03-17T12:32:05.515Z,38.42
2023-03-17T12:34:51.157Z,38.51
2023-03-17T12:37:18.718Z,39.48
2023-03-17T12:39:55.945Z,38.37
2023-03-17T12:42:53.614Z,37.31
2023-03-17T12:45:54.452Z,38.07
2023-03-17T12:48:43.418Z,38.79
2023-03-17T12:51:44.654Z,38.56
2023-03-17T12:54:33.399Z,39.20
2023-03-17T12:57:13.043Z,39.28
2023-03-17T12:59:43.985Z,39.71
2023-03-17T13:02:28.975Z,39.91
2023-03-17T13:05:00.945Z,40.25
2023-03-17T13:07:52.670Z,40.12
2023-03-17T13:10:19.174Z,40.32
2023-03-17T13:12:48.749Z,39.77
2023-03-17T13:15:21.568Z,39.39
2023-03-17T13:17:48.236Z,39.28
2023-03-17T13:20:20.637Z,38.86
2023-03-17T13:23:17.533Z,39.55
2023-03-17T13:25:53.426Z,38.70
2023-03-17T13:28:34.875Z,39.70
2023-03-17T13:31:13.797Z,39.60
2023-03-17T13:33:44.618Z,39.70
2023-03-17T13:36:19.346Z,40.08
2023-03-17T13:39:19.173Z,38.58
2023-03-17T13:42:05.575Z,38.77
2023-03-17T13:45:08.169Z,39.81
2023-03-17T13:47:38.309Z,38.32
2023-03-17T13:50:12.539Z,39.60
2023-03-17T13:52:48.429Z,41.32
2023-03-17T13:55:17.954Z,39.37
2023-03-17T13:58:08.684Z,40.24
2023-03-17T14:00:43.611Z,41.58
2023-03-17T14:03:15.888Z,40.45
2023-03-17T14:05:46.377Z,39.36
2023-03-17T14:08:18.380Z,40.65
2023-03-17T14:10:53.624Z,40.70
2023-03-17T14:13:24.334Z,40.55
2023-03-17T14:15:57.042Z,41.12
2023-03-17T14:18:32.766Z,40.55
2023-03-17T14:21:02.702Z,40.86
2023-03-17T14:23:29.908Z,41.10
2023-03-17T14:25:58.649Z,43.10
2023-03-17T14:28:28.487Z,41.61
2023-03-17T14:31:01.091Z,42.07
2023-03-17T14:33:34.536Z,40.75
2023-03-17T14:36:03.138Z,40.19
2023-03-17T14:38:35.723Z,43.36
2023-03-17T14:41:23.913Z,41.48
2023-03-17T14:43:56.115Z,42.32
2023-03-17T14:46:37.903Z,41.39
2023-03-17T14:49:24.770Z,42.85
2023-03-17T14:51:57.306Z,40.99
2023-03-17T14:54:31.711Z,42.08
2023-03-17T14:57:06.486Z,41.39
2023-03-17T14:59:40.746Z,41.76
2023-03-17T15:02:16.531Z,43.02
2023-03-17T15:04:53.673Z,42.38
2023-03-17T15:07:40.455Z,44.11
2023-03-17T15:10:15.801Z,42.52
2023-03-17T15:12:43.051Z,42.53
2023-03-17T15:15:26.384Z,42.35
2023-03-17T15:17:59.340Z,43.07
2023-03-17T15:20:33.784Z,41.74
2023-03-17T15:23:25.063Z,43.25
2023-03-17T15:25:56.797Z,43.80
2023-03-17T15:28:28.252Z,45.05
2023-03-17T15:31:08.746Z,43.71
2023-03-17T15:33:45.689Z,43.60
2023-03-17T15:36:31.407Z,45.37
2023-03-17T15:38:59.331Z,45.42
2023-03-17T15:41:26.145Z,48.45
2023-03-17T15:43:53.587Z,49.72
2023-03-17T15:46:31.121Z,51.06
2023-03-17T15:48:58.137Z,49.90
2023-03-17T15:51:24.788Z,50.84
2023-03-17T15:53:51.470Z,51.12
2023-03-17T15:56:20.975Z,52.04
2023-03-17T15:58:49.321Z,53.28
2023-03-17T16:01:16.658Z,54.85
2023-03-17T16:03:45.452Z,55.04
2023-03-17T16:08:42.853Z,55.48
2023-03-17T16:11:15.189Z,56.20
2023-03-17T16:13:41.910Z,56.09
2023-03-17T16:16:17.063Z,56.09
2023-03-17T16:18:44.050Z,56.42
2023-03-17T16:21:11.582Z,57.49
2023-03-17T16:23:38.118Z,58.98
2023-03-17T16:26:15.044Z,56.95
2023-03-17T16:28:44.738Z,57.34
2023-03-17T16:31:25.472Z,56.14
2023-03-17T16:33:53.584Z,56.74
2023-03-17T16:36:21.792Z,57.28
2023-03-17T16:38:49.791Z,57.81
2023-03-17T16:41:27.354Z,57.68
2023-03-17T16:44:01.220Z,57.92
2023-03-17T16:46:34.056Z,58.21
2023-03-17T16:49:01.837Z,57.70
2023-03-17T16:51:28.404Z,58.17
2023-03-17T16:53:55.176Z,58.34
2023-03-17T16:56:25.099Z,58.12
2023-03-17T16:58:51.692Z,57.22
2023-03-17T17:01:21.877Z,58.85
2023-03-17T17:03:48.792Z,59.52
2023-03-17T17:06:15.859Z,59.31
2023-03-17T17:08:49.004Z,59.70
2023-03-17T17:11:17.961Z,60.70
2023-03-17T17:13:46.344Z,61.21
2023-03-17T17:16:27.704Z,60.39
2023-03-17T17:18:54.858Z,60.42
2023-03-17T17:21:21.408Z,60.68
2023-03-17T17:23:47.977Z,61.44
2023-03-17T17:26:14.900Z,62.29
2023-03-17T17:28:41.493Z,61.32
2023-03-17T17:31:09.119Z,63.07
2023-03-17T17:33:36.676Z,62.38
2023-03-17T17:36:11.590Z,62.75
2023-03-17T17:38:38.254Z,64.09
2023-03-17T17:41:08.920Z,62.50
2023-03-17T17:43:35.586Z,65.23
2023-03-17T17:46:02.151Z,64.62
2023-03-17T17:48:29.201Z,64.01
2023-03-17T17:50:56.848Z,65.65
2023-03-17T17:53:24.190Z,65.05
2023-03-17T17:55:51.807Z,65.27
2023-03-17T17:58:21.590Z,65.80
2023-03-17T18:00:48.820Z,66.35
2023-03-17T18:03:15.549Z,65.91
2023-03-17T18:05:42.161Z,65.54
2023-03-17T18:08:08.695Z,66.80
2023-03-17T18:10:35.332Z,64.94
2023-03-17T18:13:01.912Z,65.31
2023-03-17T18:15:28.985Z,65.87
2023-03-17T18:17:56.401Z,65.19
2023-03-17T18:20:24.036Z,66.10
2023-03-17T18:22:51.576Z,65.56
2023-03-17T18:25:19.508Z,66.31
2023-03-17T18:27:58.008Z,66.72
2023-03-17T18:30:28.366Z,65.77
2023-03-17T18:32:58.331Z,66.96
2023-03-17T18:35:27.888Z,66.45
2023-03-17T18:37:57.305Z,66.90
2023-03-17T18:40:25.071Z,67.13
2023-03-17T18:42:51.590Z,66.82
2023-03-17T18:45:18.332Z,66.92
2023-03-17T18:47:45.290Z,66.89
2023-03-17T18:50:13.672Z,67.08
2023-03-17T18:52:42.018Z,67.41
2023-03-17T18:55:11.108Z,67.23
2023-03-17T18:57:38.295Z,66.22
2023-03-17T19:00:08.635Z,67.26
2023-03-17T19:02:35.781Z,67.92
2023-03-17T19:05:02.445Z,68.29
2023-03-17T19:07:29.405Z,68.16
2023-03-17T19:09:56.108Z,68.79
2023-03-17T19:12:24.464Z,67.80
2023-03-17T19:14:52.196Z,68.57
2023-03-17T19:17:18.876Z,69.33
2023-03-17T19:19:45.580Z,68.84
2023-03-17T19:22:12.244Z,68.33
2023-03-17T19:24:38.977Z,67.58
2023-03-17T19:27:05.702Z,68.57
2023-03-17T19:29:33.499Z,68.18
2023-03-17T19:32:00.517Z,68.11
2023-03-17T19:34:30.102Z,67.98
2023-03-17T19:36:57.054Z,68.09
2023-03-17T19:39:23.831Z,68.35
2023-03-17T19:41:54.953Z,68.16
2023-03-17T19:44:22.328Z,68.95
2023-03-17T19:46:49.463Z,68.37
2023-03-17T19:49:16.515Z,69.14
2023-03-17T19:51:43.800Z,69.41
2023-03-17T19:54:11.152Z,68.69
2023-03-17T19:56:38.650Z,68.32
2023-03-17T19:59:06.611Z,68.50
2023-03-17T20:01:34.125Z,69.00
2023-03-17T20:04:01.131Z,69.75
2023-03-17T20:06:28.097Z,69.17
2023-03-17T20:08:54.669Z,68.90
2023-03-17T20:11:21.692Z,68.99
2023-03-17T20:13:48.335Z,68.39
2023-03-17T20:16:16.467Z,68.74
2023-03-17T20:18:43.027Z,68.84
2023-03-17T20:21:13.751Z,69.99
2023-03-17T20:23:40.317Z,69.82
2023-03-17T20:26:07.492Z,70.12
2023-03-17T20:28:34.347Z,70.69
2023-03-17T20:31:03.176Z,69.48
2023-03-17T20:33:31.706Z,69.49
2023-03-17T20:35:58.319Z,69.73
2023-03-17T20:38:25.597Z,69.68
2023-03-17T20:40:52.536Z,69.74
2023-03-17T20:43:19.362Z,69.90
2023-03-17T20:45:45.918Z,70.17
2023-03-17T20:48:13.298Z,69.80
2023-03-17T20:50:40.944Z,70.42
2023-03-17T20:53:07.523Z,70.03
2023-03-17T20:55:34.171Z,70.25
2023-03-17T20:58:01.724Z,71.00
2023-03-17T21:00:30.234Z,70.67
2023-03-17T21:02:57.092Z,70.12
2023-03-17T21:05:26.449Z,70.43
2023-03-17T21:07:53.351Z,69.94
2023-03-17T21:10:20.644Z,70.00
2023-03-17T21:12:48.135Z,70.56
2023-03-17T21:15:15.240Z,71.12
2023-03-17T21:17:42.407Z,70.57
2023-03-17T21:20:12.261Z,70.92
2023-03-17T21:22:39.916Z,70.51
2023-03-17T21:25:08.654Z,70.49
2023-03-17T21:27:37.657Z,70.73
2023-03-17T21:30:09.722Z,70.61
2023-03-17T21:32:36.463Z,70.95
2023-03-17T21:35:03.817Z,70.24
2023-03-17T21:37:30.457Z,70.35
2023-03-17T21:39:57.055Z,70.44
2023-03-17T21:42:24.704Z,70.42
2023-03-17T21:44:52.232Z,70.16
2023-03-17T21:47:19.588Z,70.69
2023-03-17T21:49:46.887Z,70.61
2023-03-17T21:52:14.948Z,70.15
2023-03-17T21:54:41.855Z,71.19
2023-03-17T21:57:08.570Z,72.77
2023-03-17T21:59:35.680Z,71.75
2023-03-17T22:02:02.818Z,71.06
2023-03-17T22:04:30.084Z,71.34
2023-03-17T22:06:58.704Z,71.06
2023-03-17T22:09:25.994Z,71.06
2023-03-17T22:11:52.586Z,71.40
2023-03-17T22:14:20.558Z,71.93
2023-03-17T22:16:48.804Z,71.21
2023-03-17T22:19:16.918Z,72.04
2023-03-17T22:21:44.346Z,71.72
2023-03-17T23:03:58.282Z,71.57
2023-03-17T23:06:25.776Z,71.57
2023-03-17T23:08:52.424Z,71.48
2023-03-17T23:11:25.102Z,71.43
2023-03-17T23:13:52.599Z,71.65
2023-03-17T23:16:20.265Z,71.27
2023-03-17T23:18:47.193Z,71.29
2023-03-17T23:21:32.430Z,71.47
2023-03-17T23:23:59.980Z,71.60
2023-03-17T23:26:27.972Z,71.91
2023-03-17T23:28:54.699Z,72.24
2023-03-17T23:31:22.494Z,72.62
2023-03-17T23:33:50.411Z,73.08
2023-03-17T23:36:17.476Z,72.38
2023-03-17T23:38:45.500Z,72.41
2023-03-17T23:41:13.372Z,72.75
2023-03-17T23:43:40.506Z,72.21
2023-03-17T23:46:07.200Z,72.03
2023-03-17T23:48:33.925Z,72.10
2023-03-17T23:51:01.079Z,72.69
2023-03-17T23:53:28.322Z,72.54
2023-03-17T23:55:55.203Z,71.93
2023-03-17T23:58:22.784Z,72.39
